sensor_id;sensor_type;location;lat;lon;timestamp;temperature;humidity
10583;DHT22;33679;51.218;6.786;2022-07-06T00:01:16;19.40;99.90
10583;DHT22;33679;51.218;6.786;2022-07-06T00:03:44;19.30;99.90
10583;DHT22;33679;51.218;6.786;2022-07-06T00:06:11;19.40;99.90
10583;DHT22;33679;51.218;6.786;2022-07-06T00:08:42;19.40;99.90
10583;DHT22;33679;51.218;6.786;2022-07-06T00:11:10;19.30;99.90
10583;DHT22;33679;51.218;6.786;2022-07-06T00:13:37;19.30;99.90
10583;DHT22;33679;51.218;6.786;2022-07-06T00:16:05;19.30;99.90
10583;DHT22;33679;51.218;6.786;2022-07-06T00:18:33;19.20;99.90
10583;DHT22;33679;51.218;6.786;2022-07-06T00:21:03;19.20;99.90
10583;DHT22;33679;51.218;6.786;2022-07-06T00:23:32;19.10;99.90
10583;DHT22;33679;51.218;6.786;2022-07-06T00:26:01;19.00;99.90
10583;DHT22;33679;51.218;6.786;2022-07-06T00:28:29;18.90;99.90
10583;DHT22;33679;51.218;6.786;2022-07-06T00:30:58;18.90;99.90
10583;DHT22;33679;51.218;6.786;2022-07-06T00:33:26;18.80;99.90
10583;DHT22;33679;51.218;6.786;2022-07-06T00:35:53;18.80;99.90
10583;DHT22;33679;51.218;6.786;2022-07-06T00:38:20;18.80;99.90
10583;DHT22;33679;51.218;6.786;2022-07-06T00:40:48;18.70;99.90
10583;DHT22;33679;51.218;6.786;2022-07-06T00:43:16;18.70;99.90
10583;DHT22;33679;51.218;6.786;2022-07-06T00:45:44;18.60;99.90
10583;DHT22;33679;51.218;6.786;2022-07-06T00:48:11;18.70;99.90
10583;DHT22;33679;51.218;6.786;2022-07-06T00:50:39;18.80;99.90
10583;DHT22;33679;51.218;6.786;2022-07-06T00:53:06;18.70;99.90
10583;DHT22;33679;51.218;6.786;2022-07-06T00:55:35;18.60;99.90
10583;DHT22;33679;51.218;6.786;2022-07-06T00:58:03;18.70;99.90
10583;DHT22;33679;51.218;6.786;2022-07-06T01:00:32;18.60;99.90
10583;DHT22;33679;51.218;6.786;2022-07-06T01:02:59;18.50;99.90
10583;DHT22;33679;51.218;6.786;2022-07-06T01:05:27;18.50;99.90
10583;DHT22;33679;51.218;6.786;2022-07-06T01:07:55;18.40;99.90
10583;DHT22;33679;51.218;6.786;2022-07-06T01:10:23;18.50;99.90
10583;DHT22;33679;51.218;6.786;2022-07-06T01:12:50;18.50;99.90
10583;DHT22;33679;51.218;6.786;2022-07-06T01:15:18;18.70;99.90
10583;DHT22;33679;51.218;6.786;2022-07-06T01:17:47;18.70;99.90
10583;DHT22;33679;51.218;6.786;2022-07-06T01:20:17;18.60;99.90
10583;DHT22;33679;51.218;6.786;2022-07-06T01:22:45;18.50;99.90
10583;DHT22;33679;51.218;6.786;2022-07-06T01:25:12;18.50;99.90
10583;DHT22;33679;51.218;6.786;2022-07-06T01:27:40;18.50;99.90
10583;DHT22;33679;51.218;6.786;2022-07-06T01:30:08;18.50;99.90
10583;DHT22;33679;51.218;6.786;2022-07-06T01:32:37;18.50;99.90
10583;DHT22;33679;51.218;6.786;2022-07-06T01:35:05;18.50;99.90
10583;DHT22;33679;51.218;6.786;2022-07-06T01:37:34;18.60;99.90
10583;DHT22;33679;51.218;6.786;2022-07-06T01:40:02;18.60;99.90
10583;DHT22;33679;51.218;6.786;2022-07-06T01:42:30;18.60;99.90
10583;DHT22;33679;51.218;6.786;2022-07-06T01:44:57;18.60;99.90
10583;DHT22;33679;51.218;6.786;2022-07-06T01:47:27;18.60;99.90
10583;DHT22;33679;51.218;6.786;2022-07-06T01:49:58;18.50;99.90
10583;DHT22;33679;51.218;6.786;2022-07-06T01:52:28;18.50;99.90
10583;DHT22;33679;51.218;6.786;2022-07-06T01:54:57;18.40;99.90
10583;DHT22;33679;51.218;6.786;2022-07-06T01:57:24;18.40;99.90
10583;DHT22;33679;51.218;6.786;2022-07-06T01:59:53;18.40;99.90
10583;DHT22;33679;51.218;6.786;2022-07-06T02:02:20;18.40;99.90
10583;DHT22;33679;51.218;6.786;2022-07-06T02:04:47;18.40;99.90
10583;DHT22;33679;51.218;6.786;2022-07-06T02:07:15;18.40;99.90
10583;DHT22;33679;51.218;6.786;2022-07-06T02:09:43;18.40;99.90
10583;DHT22;33679;51.218;6.786;2022-07-06T02:12:12;18.30;99.90
10583;DHT22;33679;51.218;6.786;2022-07-06T02:14:39;18.30;99.90
10583;DHT22;33679;51.218;6.786;2022-07-06T02:17:06;18.30;99.90
10583;DHT22;33679;51.218;6.786;2022-07-06T02:19:34;18.20;99.90
10583;DHT22;33679;51.218;6.786;2022-07-06T02:22:02;18.30;99.90
10583;DHT22;33679;51.218;6.786;2022-07-06T02:24:32;18.20;99.90
10583;DHT22;33679;51.218;6.786;2022-07-06T02:26:59;18.20;99.90
10583;DHT22;33679;51.218;6.786;2022-07-06T02:29:28;18.10;99.90
10583;DHT22;33679;51.218;6.786;2022-07-06T02:31:56;18.10;99.90
10583;DHT22;33679;51.218;6.786;2022-07-06T02:34:23;18.10;99.90
10583;DHT22;33679;51.218;6.786;2022-07-06T02:36:52;18.00;99.90
10583;DHT22;33679;51.218;6.786;2022-07-06T02:39:19;18.10;99.90
10583;DHT22;33679;51.218;6.786;2022-07-06T02:41:47;18.00;99.90
10583;DHT22;33679;51.218;6.786;2022-07-06T02:44:14;17.90;99.90
10583;DHT22;33679;51.218;6.786;2022-07-06T02:46:43;17.90;99.90
10583;DHT22;33679;51.218;6.786;2022-07-06T02:49:10;17.90;99.90
10583;DHT22;33679;51.218;6.786;2022-07-06T02:51:38;17.90;99.90
10583;DHT22;33679;51.218;6.786;2022-07-06T02:54:05;17.90;99.90
10583;DHT22;33679;51.218;6.786;2022-07-06T02:56:32;17.90;99.90
10583;DHT22;33679;51.218;6.786;2022-07-06T02:59:00;17.90;99.90
10583;DHT22;33679;51.218;6.786;2022-07-06T03:01:29;17.80;99.90
10583;DHT22;33679;51.218;6.786;2022-07-06T03:03:57;17.80;99.90
10583;DHT22;33679;51.218;6.786;2022-07-06T03:06:25;17.80;99.90
10583;DHT22;33679;51.218;6.786;2022-07-06T03:08:52;17.80;99.90
10583;DHT22;33679;51.218;6.786;2022-07-06T03:11:19;17.80;99.90
10583;DHT22;33679;51.218;6.786;2022-07-06T03:13:47;17.90;99.90
10583;DHT22;33679;51.218;6.786;2022-07-06T03:16:14;17.90;99.90
10583;DHT22;33679;51.218;6.786;2022-07-06T03:18:41;18.00;99.90
10583;DHT22;33679;51.218;6.786;2022-07-06T03:21:10;17.90;99.90
10583;DHT22;33679;51.218;6.786;2022-07-06T03:23:38;17.90;99.90
10583;DHT22;33679;51.218;6.786;2022-07-06T03:26:05;17.90;99.90
10583;DHT22;33679;51.218;6.786;2022-07-06T03:28:33;17.90;99.90
10583;DHT22;33679;51.218;6.786;2022-07-06T03:31:00;17.90;99.90
10583;DHT22;33679;51.218;6.786;2022-07-06T03:33:27;17.80;99.90
10583;DHT22;33679;51.218;6.786;2022-07-06T03:35:55;17.70;99.90
10583;DHT22;33679;51.218;6.786;2022-07-06T03:38:24;17.70;99.90
10583;DHT22;33679;51.218;6.786;2022-07-06T03:40:52;17.70;99.90
10583;DHT22;33679;51.218;6.786;2022-07-06T03:43:19;17.70;99.90
10583;DHT22;33679;51.218;6.786;2022-07-06T03:45:46;17.60;99.90
10583;DHT22;33679;51.218;6.786;2022-07-06T03:48:14;17.70;99.90
10583;DHT22;33679;51.218;6.786;2022-07-06T03:50:42;17.70;99.90
10583;DHT22;33679;51.218;6.786;2022-07-06T03:53:10;17.80;99.90
10583;DHT22;33679;51.218;6.786;2022-07-06T03:55:48;17.80;99.90
10583;DHT22;33679;51.218;6.786;2022-07-06T03:58:29;17.80;99.90
10583;DHT22;33679;51.218;6.786;2022-07-06T04:00:56;17.90;99.90
10583;DHT22;33679;51.218;6.786;2022-07-06T04:03:23;17.90;99.90
10583;DHT22;33679;51.218;6.786;2022-07-06T04:05:50;18.00;99.90
10583;DHT22;33679;51.218;6.786;2022-07-06T04:08:18;18.00;99.90
10583;DHT22;33679;51.218;6.786;2022-07-06T04:10:52;18.00;99.90
10583;DHT22;33679;51.218;6.786;2022-07-06T04:13:19;18.00;99.90
10583;DHT22;33679;51.218;6.786;2022-07-06T04:15:46;18.00;99.90
10583;DHT22;33679;51.218;6.786;2022-07-06T04:18:14;18.00;99.90
10583;DHT22;33679;51.218;6.786;2022-07-06T04:20:47;17.90;99.90
10583;DHT22;33679;51.218;6.786;2022-07-06T04:23:14;17.90;99.90
10583;DHT22;33679;51.218;6.786;2022-07-06T04:25:41;17.90;99.90
10583;DHT22;33679;51.218;6.786;2022-07-06T04:28:11;17.80;99.90
10583;DHT22;33679;51.218;6.786;2022-07-06T04:30:38;18.00;99.90
10583;DHT22;33679;51.218;6.786;2022-07-06T04:33:09;17.90;99.90
10583;DHT22;33679;51.218;6.786;2022-07-06T04:35:38;17.90;99.90
10583;DHT22;33679;51.218;6.786;2022-07-06T04:38:05;17.90;99.90
10583;DHT22;33679;51.218;6.786;2022-07-06T04:40:32;17.90;99.90
10583;DHT22;33679;51.218;6.786;2022-07-06T04:43:04;17.90;99.90
10583;DHT22;33679;51.218;6.786;2022-07-06T04:45:35;18.00;99.90
10583;DHT22;33679;51.218;6.786;2022-07-06T04:48:03;18.00;99.90
10583;DHT22;33679;51.218;6.786;2022-07-06T04:50:31;18.00;99.90
10583;DHT22;33679;51.218;6.786;2022-07-06T04:53:01;18.10;99.90
10583;DHT22;33679;51.218;6.786;2022-07-06T04:55:31;18.30;99.90
10583;DHT22;33679;51.218;6.786;2022-07-06T04:57:59;18.40;99.90
10583;DHT22;33679;51.218;6.786;2022-07-06T05:00:27;18.50;99.90
10583;DHT22;33679;51.218;6.786;2022-07-06T05:02:55;18.50;99.90
10583;DHT22;33679;51.218;6.786;2022-07-06T05:05:26;18.50;99.90
10583;DHT22;33679;51.218;6.786;2022-07-06T05:07:53;18.50;99.90
10583;DHT22;33679;51.218;6.786;2022-07-06T05:10:22;18.60;99.90
10583;DHT22;33679;51.218;6.786;2022-07-06T05:12:53;18.70;99.90
10583;DHT22;33679;51.218;6.786;2022-07-06T05:15:21;18.60;99.90
10583;DHT22;33679;51.218;6.786;2022-07-06T05:17:49;18.70;99.90
10583;DHT22;33679;51.218;6.786;2022-07-06T05:20:18;18.80;99.90
10583;DHT22;33679;51.218;6.786;2022-07-06T05:22:47;18.90;99.90
10583;DHT22;33679;51.218;6.786;2022-07-06T05:25:18;19.10;99.90
10583;DHT22;33679;51.218;6.786;2022-07-06T05:27:47;19.30;99.90
10583;DHT22;33679;51.218;6.786;2022-07-06T05:30:15;19.40;99.90
10583;DHT22;33679;51.218;6.786;2022-07-06T05:32:45;19.50;99.90
10583;DHT22;33679;51.218;6.786;2022-07-06T05:35:12;19.50;99.90
10583;DHT22;33679;51.218;6.786;2022-07-06T05:37:41;19.60;99.90
10583;DHT22;33679;51.218;6.786;2022-07-06T05:40:09;19.50;99.90
10583;DHT22;33679;51.218;6.786;2022-07-06T05:42:37;19.60;99.90
10583;DHT22;33679;51.218;6.786;2022-07-06T05:45:05;19.70;99.90
10583;DHT22;33679;51.218;6.786;2022-07-06T05:47:32;20.00;99.90
10583;DHT22;33679;51.218;6.786;2022-07-06T05:50:18;20.50;99.90
10583;DHT22;33679;51.218;6.786;2022-07-06T05:52:56;21.10;99.90
10583;DHT22;33679;51.218;6.786;2022-07-06T05:55:23;21.70;99.90
10583;DHT22;33679;51.218;6.786;2022-07-06T05:57:52;22.50;99.90
10583;DHT22;33679;51.218;6.786;2022-07-06T06:00:23;23.60;99.90
10583;DHT22;33679;51.218;6.786;2022-07-06T06:02:53;24.70;99.90
10583;DHT22;33679;51.218;6.786;2022-07-06T06:05:21;25.90;98.30
10583;DHT22;33679;51.218;6.786;2022-07-06T06:07:51;27.00;96.80
10583;DHT22;33679;51.218;6.786;2022-07-06T06:10:23;27.90;95.70
10583;DHT22;33679;51.218;6.786;2022-07-06T06:12:53;28.80;94.70
10583;DHT22;33679;51.218;6.786;2022-07-06T06:15:21;29.50;93.70
10583;DHT22;33679;51.218;6.786;2022-07-06T06:17:48;30.00;93.00
10583;DHT22;33679;51.218;6.786;2022-07-06T06:20:18;30.10;92.80
10583;DHT22;33679;51.218;6.786;2022-07-06T06:22:46;29.90;91.60
10583;DHT22;33679;51.218;6.786;2022-07-06T06:25:14;29.20;92.00
10583;DHT22;33679;51.218;6.786;2022-07-06T06:27:42;28.30;92.40
10583;DHT22;33679;51.218;6.786;2022-07-06T06:30:11;27.40;93.30
10583;DHT22;33679;51.218;6.786;2022-07-06T06:32:39;26.70;93.80
10583;DHT22;33679;51.218;6.786;2022-07-06T06:35:08;25.90;94.50
10583;DHT22;33679;51.218;6.786;2022-07-06T06:37:35;25.20;95.20
10583;DHT22;33679;51.218;6.786;2022-07-06T06:40:03;24.70;95.70
10583;DHT22;33679;51.218;6.786;2022-07-06T06:42:30;24.40;96.30
10583;DHT22;33679;51.218;6.786;2022-07-06T06:44:59;24.00;96.40
10583;DHT22;33679;51.218;6.786;2022-07-06T06:47:27;23.70;96.70
10583;DHT22;33679;51.218;6.786;2022-07-06T06:49:54;23.30;97.30
10583;DHT22;33679;51.218;6.786;2022-07-06T06:52:21;23.00;97.60
10583;DHT22;33679;51.218;6.786;2022-07-06T06:54:48;22.80;98.00
10583;DHT22;33679;51.218;6.786;2022-07-06T06:57:14;22.40;98.50
10583;DHT22;33679;51.218;6.786;2022-07-06T06:59:42;22.20;98.90
10583;DHT22;33679;51.218;6.786;2022-07-06T07:02:10;22.00;99.30
10583;DHT22;33679;51.218;6.786;2022-07-06T07:04:38;21.70;99.70
10583;DHT22;33679;51.218;6.786;2022-07-06T07:07:05;21.60;99.70
10583;DHT22;33679;51.218;6.786;2022-07-06T07:09:32;21.60;99.90
10583;DHT22;33679;51.218;6.786;2022-07-06T07:12:00;21.50;99.90
10583;DHT22;33679;51.218;6.786;2022-07-06T07:14:27;21.50;99.90
10583;DHT22;33679;51.218;6.786;2022-07-06T07:16:54;21.50;99.90
10583;DHT22;33679;51.218;6.786;2022-07-06T07:19:22;21.40;99.90
10583;DHT22;33679;51.218;6.786;2022-07-06T07:21:49;21.40;99.90
10583;DHT22;33679;51.218;6.786;2022-07-06T07:24:16;21.30;99.90
10583;DHT22;33679;51.218;6.786;2022-07-06T07:26:44;21.20;99.90
10583;DHT22;33679;51.218;6.786;2022-07-06T07:29:11;21.30;99.90
10583;DHT22;33679;51.218;6.786;2022-07-06T07:31:38;21.30;99.90
10583;DHT22;33679;51.218;6.786;2022-07-06T07:34:05;21.40;99.90
10583;DHT22;33679;51.218;6.786;2022-07-06T07:36:33;21.40;99.90
10583;DHT22;33679;51.218;6.786;2022-07-06T07:39:04;21.40;99.90
10583;DHT22;33679;51.218;6.786;2022-07-06T07:41:31;21.50;99.90
10583;DHT22;33679;51.218;6.786;2022-07-06T07:43:59;21.50;99.90
10583;DHT22;33679;51.218;6.786;2022-07-06T07:46:26;21.60;99.90
10583;DHT22;33679;51.218;6.786;2022-07-06T07:48:53;21.70;99.90
10583;DHT22;33679;51.218;6.786;2022-07-06T07:51:20;21.80;99.90
10583;DHT22;33679;51.218;6.786;2022-07-06T07:53:49;21.80;99.90
10583;DHT22;33679;51.218;6.786;2022-07-06T07:56:16;21.80;99.90
10583;DHT22;33679;51.218;6.786;2022-07-06T07:58:42;21.90;99.90
10583;DHT22;33679;51.218;6.786;2022-07-06T08:01:12;21.90;99.90
10583;DHT22;33679;51.218;6.786;2022-07-06T08:03:39;21.90;99.90
10583;DHT22;33679;51.218;6.786;2022-07-06T08:06:06;22.00;99.90
10583;DHT22;33679;51.218;6.786;2022-07-06T08:08:33;22.10;99.90
10583;DHT22;33679;51.218;6.786;2022-07-06T08:11:01;22.30;99.80
10583;DHT22;33679;51.218;6.786;2022-07-06T08:13:32;22.30;99.40
10583;DHT22;33679;51.218;6.786;2022-07-06T08:15:59;22.30;98.40
10583;DHT22;33679;51.218;6.786;2022-07-06T08:18:26;22.30;98.10
10583;DHT22;33679;51.218;6.786;2022-07-06T08:20:53;22.30;97.90
10583;DHT22;33679;51.218;6.786;2022-07-06T08:23:22;22.20;98.10
10583;DHT22;33679;51.218;6.786;2022-07-06T08:25:49;22.20;98.10
10583;DHT22;33679;51.218;6.786;2022-07-06T08:28:18;22.20;98.20
10583;DHT22;33679;51.218;6.786;2022-07-06T08:30:45;22.20;98.40
10583;DHT22;33679;51.218;6.786;2022-07-06T08:33:13;22.20;98.60
10583;DHT22;33679;51.218;6.786;2022-07-06T08:35:40;22.40;98.50
10583;DHT22;33679;51.218;6.786;2022-07-06T08:38:26;22.30;98.50
10583;DHT22;33679;51.218;6.786;2022-07-06T08:41:30;22.20;98.40
10583;DHT22;33679;51.218;6.786;2022-07-06T08:44:05;22.20;98.40
10583;DHT22;33679;51.218;6.786;2022-07-06T08:46:32;22.40;98.20
10583;DHT22;33679;51.218;6.786;2022-07-06T08:49:00;22.40;98.10
10583;DHT22;33679;51.218;6.786;2022-07-06T08:51:28;22.50;97.90
10583;DHT22;33679;51.218;6.786;2022-07-06T08:53:55;22.60;97.70
10583;DHT22;33679;51.218;6.786;2022-07-06T08:56:22;22.50;98.00
10583;DHT22;33679;51.218;6.786;2022-07-06T08:58:52;22.50;97.60
10583;DHT22;33679;51.218;6.786;2022-07-06T09:01:21;22.50;97.30
10583;DHT22;33679;51.218;6.786;2022-07-06T09:03:49;22.60;97.20
10583;DHT22;33679;51.218;6.786;2022-07-06T09:06:19;22.40;97.60
10583;DHT22;33679;51.218;6.786;2022-07-06T09:08:48;22.40;97.50
10583;DHT22;33679;51.218;6.786;2022-07-06T09:11:15;22.40;97.60
10583;DHT22;33679;51.218;6.786;2022-07-06T09:13:42;22.20;97.90
10583;DHT22;33679;51.218;6.786;2022-07-06T09:16:09;22.30;97.20
10583;DHT22;33679;51.218;6.786;2022-07-06T09:18:44;22.20;96.90
10583;DHT22;33679;51.218;6.786;2022-07-06T09:21:12;22.10;96.50
10583;DHT22;33679;51.218;6.786;2022-07-06T09:23:53;22.20;95.90
10583;DHT22;33679;51.218;6.786;2022-07-06T09:26:27;22.10;96.30
10583;DHT22;33679;51.218;6.786;2022-07-06T09:28:54;22.20;96.70
10583;DHT22;33679;51.218;6.786;2022-07-06T09:31:29;22.30;96.50
10583;DHT22;33679;51.218;6.786;2022-07-06T09:34:17;22.30;96.60
10583;DHT22;33679;51.218;6.786;2022-07-06T09:36:45;22.50;96.70
10583;DHT22;33679;51.218;6.786;2022-07-06T09:39:16;22.70;96.50
10583;DHT22;33679;51.218;6.786;2022-07-06T09:41:44;22.90;96.30
10583;DHT22;33679;51.218;6.786;2022-07-06T09:44:11;23.00;94.80
10583;DHT22;33679;51.218;6.786;2022-07-06T09:46:42;23.10;93.00
10583;DHT22;33679;51.218;6.786;2022-07-06T09:49:14;23.00;92.90
10583;DHT22;33679;51.218;6.786;2022-07-06T09:51:43;23.10;92.70
10583;DHT22;33679;51.218;6.786;2022-07-06T09:54:11;23.20;92.80
10583;DHT22;33679;51.218;6.786;2022-07-06T09:56:38;23.40;93.50
10583;DHT22;33679;51.218;6.786;2022-07-06T09:59:09;23.40;93.90
10583;DHT22;33679;51.218;6.786;2022-07-06T10:01:40;23.50;94.30
10583;DHT22;33679;51.218;6.786;2022-07-06T10:04:08;23.40;94.90
10583;DHT22;33679;51.218;6.786;2022-07-06T10:06:40;23.40;94.90
10583;DHT22;33679;51.218;6.786;2022-07-06T10:09:07;23.40;95.00
10583;DHT22;33679;51.218;6.786;2022-07-06T10:11:37;23.30;95.00
10583;DHT22;33679;51.218;6.786;2022-07-06T10:14:07;23.40;94.70
10583;DHT22;33679;51.218;6.786;2022-07-06T10:16:35;23.40;94.40
10583;DHT22;33679;51.218;6.786;2022-07-06T10:19:03;23.40;94.40
10583;DHT22;33679;51.218;6.786;2022-07-06T10:21:31;23.50;94.20
10583;DHT22;33679;51.218;6.786;2022-07-06T10:24:00;23.50;94.10
10583;DHT22;33679;51.218;6.786;2022-07-06T10:26:27;23.60;93.70
10583;DHT22;33679;51.218;6.786;2022-07-06T10:28:55;23.50;93.80
10583;DHT22;33679;51.218;6.786;2022-07-06T10:31:23;23.70;93.40
10583;DHT22;33679;51.218;6.786;2022-07-06T10:33:50;23.60;93.30
10583;DHT22;33679;51.218;6.786;2022-07-06T10:36:20;23.60;93.20
10583;DHT22;33679;51.218;6.786;2022-07-06T10:38:48;23.80;92.10
10583;DHT22;33679;51.218;6.786;2022-07-06T10:41:29;23.80;92.10
10583;DHT22;33679;51.218;6.786;2022-07-06T10:43:57;23.90;92.10
10583;DHT22;33679;51.218;6.786;2022-07-06T10:46:27;23.80;92.40
10583;DHT22;33679;51.218;6.786;2022-07-06T10:48:55;24.00;92.20
10583;DHT22;33679;51.218;6.786;2022-07-06T10:51:23;24.00;92.20
10583;DHT22;33679;51.218;6.786;2022-07-06T10:53:55;24.00;92.30
10583;DHT22;33679;51.218;6.786;2022-07-06T10:56:32;24.00;92.40
10583;DHT22;33679;51.218;6.786;2022-07-06T10:59:02;24.10;92.20
10583;DHT22;33679;51.218;6.786;2022-07-06T11:01:31;24.20;92.30
10583;DHT22;33679;51.218;6.786;2022-07-06T11:04:09;24.20;92.10
10583;DHT22;33679;51.218;6.786;2022-07-06T11:06:40;24.30;91.70
10583;DHT22;33679;51.218;6.786;2022-07-06T11:09:12;24.10;91.90
10583;DHT22;33679;51.218;6.786;2022-07-06T11:11:49;24.20;92.00
10583;DHT22;33679;51.218;6.786;2022-07-06T11:14:17;24.10;91.90
10583;DHT22;33679;51.218;6.786;2022-07-06T11:17:02;24.20;91.70
10583;DHT22;33679;51.218;6.786;2022-07-06T11:19:30;24.30;91.50
10583;DHT22;33679;51.218;6.786;2022-07-06T11:21:58;24.20;92.20
10583;DHT22;33679;51.218;6.786;2022-07-06T11:24:32;24.10;92.30
10583;DHT22;33679;51.218;6.786;2022-07-06T11:27:01;24.10;92.60
10583;DHT22;33679;51.218;6.786;2022-07-06T11:29:28;24.10;92.30
10583;DHT22;33679;51.218;6.786;2022-07-06T11:31:56;24.10;92.30
10583;DHT22;33679;51.218;6.786;2022-07-06T11:34:24;24.10;92.20
10583;DHT22;33679;51.218;6.786;2022-07-06T11:36:54;24.10;92.10
10583;DHT22;33679;51.218;6.786;2022-07-06T11:39:22;24.20;92.10
10583;DHT22;33679;51.218;6.786;2022-07-06T11:41:49;24.20;92.40
10583;DHT22;33679;51.218;6.786;2022-07-06T11:44:18;24.30;92.30
10583;DHT22;33679;51.218;6.786;2022-07-06T11:46:46;24.40;92.10
10583;DHT22;33679;51.218;6.786;2022-07-06T11:49:13;24.40;92.20
10583;DHT22;33679;51.218;6.786;2022-07-06T11:51:41;24.50;92.10
10583;DHT22;33679;51.218;6.786;2022-07-06T11:54:10;24.70;91.80
10583;DHT22;33679;51.218;6.786;2022-07-06T11:56:37;24.70;91.60
10583;DHT22;33679;51.218;6.786;2022-07-06T11:59:06;24.90;91.60
10583;DHT22;33679;51.218;6.786;2022-07-06T12:01:35;24.80;91.70
10583;DHT22;33679;51.218;6.786;2022-07-06T12:04:07;24.80;91.80
10583;DHT22;33679;51.218;6.786;2022-07-06T12:06:34;24.90;91.40
10583;DHT22;33679;51.218;6.786;2022-07-06T12:09:01;25.10;91.30
10583;DHT22;33679;51.218;6.786;2022-07-06T12:11:31;25.10;91.40
10583;DHT22;33679;51.218;6.786;2022-07-06T12:13:59;25.30;91.30
10583;DHT22;33679;51.218;6.786;2022-07-06T12:16:32;25.30;91.10
10583;DHT22;33679;51.218;6.786;2022-07-06T12:19:03;25.20;91.30
10583;DHT22;33679;51.218;6.786;2022-07-06T12:21:31;25.30;91.30
10583;DHT22;33679;51.218;6.786;2022-07-06T12:23:58;25.20;91.30
10583;DHT22;33679;51.218;6.786;2022-07-06T12:26:25;25.10;91.60
10583;DHT22;33679;51.218;6.786;2022-07-06T12:28:59;25.10;91.50
10583;DHT22;33679;51.218;6.786;2022-07-06T12:31:33;25.20;91.40
10583;DHT22;33679;51.218;6.786;2022-07-06T12:34:02;25.20;91.30
10583;DHT22;33679;51.218;6.786;2022-07-06T12:36:41;25.00;91.50
10583;DHT22;33679;51.218;6.786;2022-07-06T12:39:10;24.80;91.90
10583;DHT22;33679;51.218;6.786;2022-07-06T12:41:37;24.90;91.30
10583;DHT22;33679;51.218;6.786;2022-07-06T12:44:05;24.80;91.20
10583;DHT22;33679;51.218;6.786;2022-07-06T12:46:36;24.80;91.30
10583;DHT22;33679;51.218;6.786;2022-07-06T12:49:14;24.80;91.20
10583;DHT22;33679;51.218;6.786;2022-07-06T12:51:48;24.80;91.10
10583;DHT22;33679;51.218;6.786;2022-07-06T12:54:15;24.80;91.80
10583;DHT22;33679;51.218;6.786;2022-07-06T12:56:56;24.80;91.60
10583;DHT22;33679;51.218;6.786;2022-07-06T12:59:23;24.80;91.80
10583;DHT22;33679;51.218;6.786;2022-07-06T13:01:52;24.90;91.80
10583;DHT22;33679;51.218;6.786;2022-07-06T13:04:23;24.90;91.50
10583;DHT22;33679;51.218;6.786;2022-07-06T13:06:51;24.90;91.30
10583;DHT22;33679;51.218;6.786;2022-07-06T13:09:18;25.00;91.20
10583;DHT22;33679;51.218;6.786;2022-07-06T13:11:45;25.00;90.90
10583;DHT22;33679;51.218;6.786;2022-07-06T13:14:13;25.10;90.80
10583;DHT22;33679;51.218;6.786;2022-07-06T13:16:41;24.90;91.10
10583;DHT22;33679;51.218;6.786;2022-07-06T13:19:08;24.90;91.00
10583;DHT22;33679;51.218;6.786;2022-07-06T13:21:40;24.70;91.30
10583;DHT22;33679;51.218;6.786;2022-07-06T13:24:07;24.60;91.80
10583;DHT22;33679;51.218;6.786;2022-07-06T13:26:35;24.80;91.30
10583;DHT22;33679;51.218;6.786;2022-07-06T13:29:02;24.70;91.30
10583;DHT22;33679;51.218;6.786;2022-07-06T13:31:32;24.80;91.30
10583;DHT22;33679;51.218;6.786;2022-07-06T13:33:59;24.90;91.20
10583;DHT22;33679;51.218;6.786;2022-07-06T13:36:26;24.60;91.90
10583;DHT22;33679;51.218;6.786;2022-07-06T13:38:54;24.60;91.70
10583;DHT22;33679;51.218;6.786;2022-07-06T13:41:21;24.60;92.10
10583;DHT22;33679;51.218;6.786;2022-07-06T13:43:49;24.90;91.40
10583;DHT22;33679;51.218;6.786;2022-07-06T13:46:16;25.00;91.10
10583;DHT22;33679;51.218;6.786;2022-07-06T13:48:43;24.80;91.40
10583;DHT22;33679;51.218;6.786;2022-07-06T13:51:11;24.70;91.50
10583;DHT22;33679;51.218;6.786;2022-07-06T13:53:38;24.70;91.50
10583;DHT22;33679;51.218;6.786;2022-07-06T13:56:06;24.80;91.50
10583;DHT22;33679;51.218;6.786;2022-07-06T13:58:34;24.80;91.50
10583;DHT22;33679;51.218;6.786;2022-07-06T14:01:02;24.90;91.10
10583;DHT22;33679;51.218;6.786;2022-07-06T14:03:29;24.90;91.10
10583;DHT22;33679;51.218;6.786;2022-07-06T14:05:56;25.00;91.00
10583;DHT22;33679;51.218;6.786;2022-07-06T14:08:24;25.00;91.00
10583;DHT22;33679;51.218;6.786;2022-07-06T14:10:51;24.90;91.20
10583;DHT22;33679;51.218;6.786;2022-07-06T14:13:20;25.00;90.80
10583;DHT22;33679;51.218;6.786;2022-07-06T14:15:47;25.00;90.70
10583;DHT22;33679;51.218;6.786;2022-07-06T14:18:14;24.90;91.10
10583;DHT22;33679;51.218;6.786;2022-07-06T14:20:43;24.80;91.20
10583;DHT22;33679;51.218;6.786;2022-07-06T14:23:10;24.90;91.30
10583;DHT22;33679;51.218;6.786;2022-07-06T14:25:38;25.00;91.20
10583;DHT22;33679;51.218;6.786;2022-07-06T14:28:05;25.10;91.10
10583;DHT22;33679;51.218;6.786;2022-07-06T14:30:34;25.10;91.10
10583;DHT22;33679;51.218;6.786;2022-07-06T14:33:02;25.20;91.10
10583;DHT22;33679;51.218;6.786;2022-07-06T14:35:33;25.20;91.10
10583;DHT22;33679;51.218;6.786;2022-07-06T14:38:00;25.20;91.30
10583;DHT22;33679;51.218;6.786;2022-07-06T14:40:29;25.30;90.90
10583;DHT22;33679;51.218;6.786;2022-07-06T14:42:57;25.20;90.90
10583;DHT22;33679;51.218;6.786;2022-07-06T14:45:25;25.30;91.10
10583;DHT22;33679;51.218;6.786;2022-07-06T14:47:54;25.30;91.10
10583;DHT22;33679;51.218;6.786;2022-07-06T14:50:21;25.30;90.90
10583;DHT22;33679;51.218;6.786;2022-07-06T14:52:50;25.40;90.90
10583;DHT22;33679;51.218;6.786;2022-07-06T14:55:17;25.30;90.70
10583;DHT22;33679;51.218;6.786;2022-07-06T14:57:44;25.20;90.70
10583;DHT22;33679;51.218;6.786;2022-07-06T15:00:13;25.30;90.80
10583;DHT22;33679;51.218;6.786;2022-07-06T15:02:42;25.30;90.70
10583;DHT22;33679;51.218;6.786;2022-07-06T15:05:10;25.50;90.60
10583;DHT22;33679;51.218;6.786;2022-07-06T15:07:38;25.50;90.60
10583;DHT22;33679;51.218;6.786;2022-07-06T15:10:06;25.40;90.70
10583;DHT22;33679;51.218;6.786;2022-07-06T15:12:34;25.30;90.60
10583;DHT22;33679;51.218;6.786;2022-07-06T15:15:05;25.20;90.60
10583;DHT22;33679;51.218;6.786;2022-07-06T15:17:33;25.20;91.00
10583;DHT22;33679;51.218;6.786;2022-07-06T15:20:00;25.10;90.80
10583;DHT22;33679;51.218;6.786;2022-07-06T15:22:29;25.20;90.50
10583;DHT22;33679;51.218;6.786;2022-07-06T15:24:56;25.20;90.60
10583;DHT22;33679;51.218;6.786;2022-07-06T15:27:26;25.20;90.60
10583;DHT22;33679;51.218;6.786;2022-07-06T15:29:53;25.20;90.90
10583;DHT22;33679;51.218;6.786;2022-07-06T15:32:22;25.20;90.80
10583;DHT22;33679;51.218;6.786;2022-07-06T15:34:51;25.20;90.80
10583;DHT22;33679;51.218;6.786;2022-07-06T15:37:18;25.30;90.90
10583;DHT22;33679;51.218;6.786;2022-07-06T15:39:51;25.20;90.90